createdAt,value
2018-10-02T00:03:15.842Z,1.17
2018-10-02T00:08:19.115Z,1.12
2018-10-02T00:13:27.662Z,1.12
2018-10-02T00:18:31.039Z,1.07
2018-10-02T00:23:34.404Z,1.17
2018-10-02T00:28:37.664Z,0.98
2018-10-02T00:33:40.922Z,1.35
2018-10-02T00:38:44.188Z,0.80
2018-10-02T00:43:47.448Z,1.10
2018-10-02T00:48:50.707Z,1.50
2018-10-02T00:53:53.964Z,1.20
2018-10-02T00:58:57.220Z,0.90
2018-10-02T01:04:00.503Z,1.20
2018-10-02T01:09:04.769Z,0.80
2018-10-02T01:14:08.033Z,0.98
2018-10-02T01:19:11.302Z,1.05
2018-10-02T01:24:14.563Z,1.15
2018-10-02T01:29:17.835Z,1.05
2018-10-02T01:34:21.087Z,0.85
2018-10-02T01:39:24.344Z,0.98
2018-10-02T01:44:27.611Z,1.00
2018-10-02T01:49:30.915Z,0.80
2018-10-02T01:54:34.172Z,0.95
2018-10-02T01:59:37.559Z,1.12
2018-10-02T02:04:40.815Z,1.00
2018-10-02T02:09:44.111Z,1.10
2018-10-02T02:14:47.371Z,0.90
2018-10-02T02:19:50.631Z,0.90
2018-10-02T02:24:53.887Z,0.82
2018-10-02T02:29:57.156Z,0.82
2018-10-02T02:35:00.427Z,1.12
2018-10-02T02:40:03.892Z,0.72
2018-10-02T02:45:07.177Z,0.82
2018-10-02T02:50:15.943Z,1.04
2018-10-02T02:55:19.251Z,0.93
2018-10-02T03:00:22.523Z,0.90
2018-10-02T03:05:25.880Z,0.60
2018-10-02T03:10:29.144Z,0.70
2018-10-02T03:15:32.543Z,1.02
2018-10-02T03:20:35.810Z,0.95
2018-10-02T03:25:39.084Z,0.70
2018-10-02T03:30:42.424Z,0.55
2018-10-02T03:35:45.707Z,0.80
2018-10-02T03:40:48.960Z,0.68
2018-10-02T03:45:52.266Z,0.70
2018-10-02T03:50:55.535Z,0.80
2018-10-02T03:55:58.803Z,0.90
2018-10-02T04:01:02.070Z,0.90
2018-10-02T04:06:05.335Z,0.80
2018-10-02T04:11:08.763Z,0.90
2018-10-02T04:16:12.044Z,0.95
2018-10-02T04:21:19.270Z,0.98
2018-10-02T04:26:22.531Z,0.90
2018-10-02T04:31:25.799Z,0.75
2018-10-02T04:36:29.203Z,0.70
2018-10-02T04:41:32.480Z,0.65
2018-10-02T04:46:35.760Z,0.70
2018-10-02T04:51:39.027Z,0.72
2018-10-02T04:56:42.287Z,0.80
2018-10-02T05:01:45.547Z,0.80
2018-10-02T05:06:48.814Z,0.85
2018-10-02T05:11:52.072Z,0.70
2018-10-02T05:16:55.399Z,0.78
2018-10-02T05:21:58.656Z,0.70
2018-10-02T05:27:01.956Z,0.95
2018-10-02T05:32:05.211Z,0.50
2018-10-02T05:37:08.607Z,0.57
2018-10-02T05:42:11.899Z,0.53
2018-10-02T05:47:15.161Z,0.50
2018-10-02T05:52:18.424Z,0.68
2018-10-02T05:57:21.699Z,0.70
2018-10-02T06:02:27.347Z,0.70
2018-10-02T06:07:30.616Z,1.00
2018-10-02T06:12:33.893Z,0.50
2018-10-02T06:17:37.173Z,0.72
2018-10-02T06:22:40.440Z,0.82
2018-10-02T06:27:43.711Z,0.80
2018-10-02T06:32:47.038Z,0.68
2018-10-02T06:37:50.272Z,0.62
2018-10-02T06:42:53.576Z,0.60
2018-10-02T06:47:56.869Z,0.83
2018-10-02T06:53:00.459Z,1.17
2018-10-02T06:58:03.750Z,1.80
2018-10-02T07:03:07.260Z,2.17
2018-10-02T07:08:10.559Z,1.57
2018-10-02T07:13:13.844Z,1.40
2018-10-02T07:18:17.133Z,1.13
2018-10-02T07:23:20.539Z,1.02
2018-10-02T07:28:23.907Z,0.70
2018-10-02T07:33:27.184Z,1.10
2018-10-02T07:38:30.611Z,1.05
2018-10-02T07:43:33.909Z,1.07
2018-10-02T07:48:37.201Z,0.83
2018-10-02T07:53:40.555Z,0.98
2018-10-02T07:58:43.792Z,0.73
2018-10-02T08:03:47.178Z,1.05
2018-10-02T08:08:50.525Z,0.85
2018-10-02T08:13:53.802Z,1.15
2018-10-02T08:18:57.104Z,0.95
2018-10-02T08:24:00.455Z,0.90
2018-10-02T08:29:03.739Z,0.75
2018-10-02T08:34:07.029Z,0.90
2018-10-02T08:39:11.121Z,0.90
2018-10-02T08:44:14.400Z,0.88
2018-10-02T08:49:17.682Z,0.80
2018-10-02T08:54:20.968Z,0.53
2018-10-02T08:59:24.257Z,0.60
2018-10-02T09:04:27.624Z,1.05
2018-10-02T09:09:30.921Z,0.60
2018-10-02T09:14:34.199Z,0.72
2018-10-02T09:19:37.487Z,0.70
2018-10-02T09:24:40.831Z,0.45
2018-10-02T09:29:49.602Z,0.65
2018-10-02T09:34:58.356Z,0.87
2018-10-02T09:40:06.990Z,0.70
2018-10-02T09:45:10.209Z,0.88
2018-10-02T09:50:13.494Z,0.75
2018-10-02T09:55:16.784Z,0.88
2018-10-02T10:00:26.299Z,0.90
2018-10-02T10:05:29.589Z,0.70
2018-10-02T10:10:32.948Z,0.93
2018-10-02T10:15:36.188Z,1.15
2018-10-02T10:20:39.472Z,1.10
2018-10-02T10:25:42.751Z,0.60
2018-10-02T10:30:46.033Z,0.75
2018-10-02T10:35:49.320Z,0.70
2018-10-02T10:40:52.642Z,0.80
2018-10-02T10:45:55.932Z,0.87
2018-10-02T10:50:59.229Z,0.70
2018-10-02T10:56:02.530Z,0.80
2018-10-02T11:01:05.849Z,0.98
2018-10-02T11:06:09.140Z,0.80
2018-10-02T11:11:12.440Z,1.12
2018-10-02T11:16:15.733Z,0.68
2018-10-02T11:21:19.043Z,0.90
2018-10-02T11:26:22.327Z,0.68
2018-10-02T11:31:25.698Z,0.80
2018-10-02T11:36:28.924Z,1.15
2018-10-02T11:41:32.236Z,1.50
2018-10-02T11:46:35.548Z,0.83
2018-10-02T11:51:39.158Z,1.27
2018-10-02T11:56:42.444Z,1.40
2018-10-02T12:01:45.807Z,0.82
2018-10-02T12:06:49.156Z,1.17
2018-10-02T12:11:52.436Z,1.33
2018-10-02T12:16:55.736Z,1.25
2018-10-02T12:21:59.048Z,1.37
2018-10-02T12:27:02.341Z,1.07
2018-10-02T12:32:05.624Z,0.90
2018-10-02T12:37:08.917Z,1.43
2018-10-02T12:42:13.743Z,1.50
2018-10-02T12:47:17.181Z,0.82
2018-10-02T12:52:20.485Z,1.45
2018-10-02T12:57:23.794Z,1.13
2018-10-02T13:02:27.079Z,1.10
2018-10-02T13:07:30.404Z,0.90
2018-10-02T13:12:33.697Z,1.27
2018-10-02T13:17:36.989Z,1.37
2018-10-02T13:22:40.280Z,0.78
2018-10-02T13:27:43.601Z,0.85
2018-10-02T13:32:46.900Z,0.88
2018-10-02T13:37:50.242Z,1.00
2018-10-02T13:42:53.548Z,0.78
2018-10-02T13:47:56.849Z,0.80
2018-10-02T13:53:00.280Z,0.40
2018-10-02T13:58:03.644Z,0.88
2018-10-02T14:03:06.949Z,1.05
2018-10-02T14:08:10.450Z,0.95
2018-10-02T14:13:13.740Z,0.70
2018-10-02T14:18:17.041Z,0.65
2018-10-02T14:23:20.352Z,0.60
2018-10-02T14:34:01.348Z,0.93
2018-10-02T14:39:06.849Z,0.78
2018-10-02T14:44:10.780Z,1.12
2018-10-02T14:49:14.120Z,0.77
2018-10-02T14:54:17.629Z,0.90
2018-10-02T14:59:21.536Z,0.82
2018-10-02T15:04:24.873Z,0.60
2018-10-02T15:09:28.149Z,0.73
2018-10-02T15:14:31.428Z,0.90
2018-10-02T15:19:34.864Z,0.80
2018-10-02T15:24:38.592Z,0.90
2018-10-02T15:29:41.978Z,0.50
2018-10-02T15:34:45.272Z,1.07
2018-10-02T15:39:48.662Z,0.57
2018-10-02T15:44:52.012Z,0.80
2018-10-02T15:49:55.448Z,0.70
2018-10-02T15:54:58.707Z,0.75
2018-10-02T16:00:03.075Z,0.50
2018-10-02T16:05:06.532Z,0.60
2018-10-02T16:10:09.813Z,0.50
2018-10-02T16:15:13.266Z,0.63
2018-10-02T16:20:16.837Z,0.60
2018-10-02T16:25:20.260Z,0.60
2018-10-02T16:30:23.528Z,0.80
2018-10-02T16:35:26.805Z,0.90
2018-10-02T16:40:30.084Z,0.50
2018-10-02T16:45:33.398Z,0.57
2018-10-02T16:50:36.663Z,0.60
2018-10-02T16:55:39.929Z,0.85
2018-10-02T17:00:43.228Z,0.65
2018-10-02T17:05:46.707Z,0.72
2018-10-02T17:10:49.999Z,0.72
2018-10-02T17:15:53.711Z,0.80
2018-10-02T17:20:57.969Z,0.60
2018-10-02T17:26:02.319Z,0.80
2018-10-02T17:31:06.450Z,0.90
2018-10-02T17:36:10.099Z,0.80
2018-10-02T17:41:13.388Z,0.70
2018-10-02T17:46:17.532Z,0.80
2018-10-02T17:51:20.855Z,0.72
2018-10-02T17:56:24.281Z,0.65
2018-10-02T18:01:27.644Z,0.60
2018-10-02T18:06:31.080Z,0.62
2018-10-02T18:11:34.385Z,0.75
2018-10-02T18:16:38.125Z,0.70
2018-10-02T18:21:41.784Z,0.70
2018-10-02T18:26:45.052Z,0.60
2018-10-02T18:31:50.026Z,0.60
2018-10-02T18:36:53.781Z,0.50
2018-10-02T18:41:57.147Z,0.50
2018-10-02T18:47:00.460Z,0.60
2018-10-02T18:52:03.752Z,0.40
2018-10-02T18:57:08.163Z,0.40
2018-10-02T19:02:11.573Z,0.50
2018-10-02T19:07:15.021Z,0.40
2018-10-02T19:12:19.764Z,0.30
2018-10-02T19:17:23.033Z,0.57
2018-10-02T19:22:26.513Z,0.40
2018-10-02T19:27:29.928Z,0.50
2018-10-02T19:32:33.252Z,0.40
2018-10-02T19:37:41.944Z,0.40
2018-10-02T19:42:45.153Z,0.53
2018-10-02T19:47:48.415Z,0.90
2018-10-02T19:52:53.123Z,0.40
2018-10-02T19:57:57.347Z,0.53
2018-10-02T20:03:01.183Z,0.30
2018-10-02T20:08:04.697Z,0.28
2018-10-02T20:13:08.003Z,0.33
2018-10-02T20:18:11.752Z,0.30
2018-10-02T20:23:15.296Z,0.30
2018-10-02T20:28:18.577Z,0.50
2018-10-02T20:33:22.100Z,0.65
2018-10-02T20:38:25.611Z,0.50
2018-10-02T20:43:28.936Z,0.50
2018-10-02T20:48:32.200Z,0.57
2018-10-02T20:53:35.733Z,0.70
2018-10-02T20:58:39.735Z,0.57
2018-10-02T21:03:42.995Z,0.50
2018-10-02T21:08:46.675Z,0.50
2018-10-02T21:13:49.989Z,0.33
2018-10-02T21:18:53.252Z,0.65
2018-10-02T21:23:56.588Z,0.40
2018-10-02T21:29:01.399Z,0.40
2018-10-02T21:34:05.564Z,0.40
2018-10-02T21:39:09.444Z,0.40
2018-10-02T21:44:12.736Z,0.40
2018-10-02T21:49:16.180Z,0.55
2018-10-02T21:54:19.629Z,0.50
2018-10-02T21:59:23.099Z,0.42
2018-10-02T22:04:26.553Z,0.47
2018-10-02T22:09:29.849Z,0.47
2018-10-02T22:14:33.422Z,0.30
2018-10-02T22:19:36.764Z,0.30
2018-10-02T22:24:40.029Z,0.40
2018-10-02T22:29:43.326Z,0.30
2018-10-02T22:34:46.615Z,0.53
2018-10-02T22:39:49.909Z,0.23
2018-10-02T22:44:53.398Z,0.30
2018-10-02T22:49:56.796Z,0.40
2018-10-02T22:55:00.415Z,0.50
2018-10-02T23:00:04.172Z,0.40
2018-10-02T23:05:07.460Z,0.45
2018-10-02T23:10:10.733Z,0.40
2018-10-02T23:15:14.000Z,0.40
2018-10-02T23:20:17.264Z,0.30
2018-10-02T23:25:20.537Z,0.30
2018-10-02T23:30:23.800Z,0.40
2018-10-02T23:35:27.121Z,0.30
2018-10-02T23:40:30.495Z,0.45
2018-10-02T23:45:33.756Z,0.30
2018-10-02T23:50:37.115Z,0.35
2018-10-02T23:55:40.421Z,0.35
